Aeroporto :
LOGIN :

Iscrizione | Disclaimer

   EN    FR    IT 

 










Sommario :    VFR   VFR Marginale   IFR   IFR Intensivo   IFR Molto Intensivo
Visibilità : 
Base nubi : 
>= 8 km
>= 3000ft
5 / 8 km
1000 / 3000 ft
1500m / 5 km
500 / 1000 ft
800 / 1500m
200 / 500 ft
< 800m
< 200 ft
Simboli :   Temporali  Nebbia  Neve Forte  Precipitazioni Forti  Vento > 20 kt
SIGMETs :   Varie  Temporali  Ghiacco  Turbolenza  Onda orograficha  Ceneri Vulcaniche






- Altitudine del aeroporto : 157 ft
- Codice IATA : SXF


EDDB - Berlin Schönefeld

ULTIMO METAR :
  • 301950Z 29004KT 9999 BKN018 02/M00 Q1026 TEMPO BKN012

METARs OBSOLETI :
  • 301920Z 29006KT 9999 BKN019 02/M00 Q1025 TEMPO BKN012
  • 301850Z 28004KT 9999 SCT016 02/M01 Q1025 TEMPO BKN012
  • 301820Z 30004KT 9999 BKN016 02/M01 Q1025 TEMPO BKN012
  • 301750Z 31004KT 9999 BKN016 02/M01 Q1025 TEMPO BKN012
  • 301720Z 29004KT 270V330 9999 BKN014 02/M01 Q1025 NOSIG

TAF TAF EDDB
Valido dal 30 a 18 ore il 31 a 18 ore UTC


301700Z 3018/3118 28004KT 9999 BKN010
BECMG 3018/3020 02006KT FEW035
PROB30
TEMPO 3018/3022 2500 -SHSN BKN009TCU
BECMG 3106/3108 32007KT



MetMap, La meteo Aeronautica in un colpo d'occhio ! - Copyright ORBIFLY Dicembre 2007 - Disclaimer

ORBIFLY MET'MAP TEAM :

Programmazione e sviluppo : Alexandra Zaïnal
Concezione : Baudouin d'Aumeries
Aiuto per la programmazione : Marc-Olivier Méhu
Supporto tecnico e logistico : Manuel Goepfert
Aiuto per la traduzione : Arnaldo La Scala

Contatto : metmap@orbifly.com




FONTI E CREDITI :

   NOAA